Mooers Forks, NY (12959)

12:42 AM EDT on July 24, 2016 (GMT -0400)
North Eastern NY | | Change Station

Elev 344 ft 44.96 °N, 73.64 °W | Updated 28 minutes ago

Mostly Cloudy
Mostly Cloudy
64.4 °F
Feels Like 64.4 °F
N
3.7
Wind Variable Wind from SSW

Today
High -- | Low -- °F
--% Chance of Precip.
Yesterday
High -- | Low -- °F
Precip. -- in
Pressure 29.91 in
Visibility 6.0 miles
Clouds Few 4900 ft
Mostly Cloudy 7000 ft
Dew Point 61 °F
Humidity 89%
Rainfall 0.00 in
Snow Depth Not available.
5:31 AM 8:29 PM
Waning Gibbous, 80% visible
METAR KPBG 240353Z AUTO 00000KT 6SM BR FEW049 BKN070 18/17 A2990 RMK AO2 SLP126 T01780172
Pressure 29.91 in
Visibility 6.0 miles
Clouds Few 4900 ft
Mostly Cloudy 7000 ft
Dew Point 61 °F
Humidity 89%
Rainfall 0.00 in
Snow Depth Not available.
5:31 AM 8:29 PM
Waning Gibbous, 80% visible
METAR KPBG 240353Z AUTO 00000KT 6SM BR FEW049 BKN070 18/17 A2990 RMK AO2 SLP126 T01780172

10-Day Weather Forecast

Almanac

Astronomy

Jul. 24, 2016 Rise Set
Actual Time
Civil Twilight
Nautical Twilight
Astronomical Twilight
Moon
Length of Visible Light
Length of Day
Tomorrow will be .
, % of the Moon is Illuminated

Today's Extremes

State Highs State Lows

Community

WunderPhotos

Upload Photos

1,927,030 photos uploaded!

WunderBlog® & News

Nearby

Air Quality

  Air Quality AQ Index Pollutant
Not available.

Snow Depth

Station Depth Elevation

Earthquake Activity

City Distance Mag. Time & Date
Minimum magnitude displayed is 2.5.

Coastal Water Temperatures

Place Temperature

Stations

Nearby Weather Stations

Station Location Temp. Windchill Dew Point Humidity Wind Precip. Elev Updated Type
                   

Watches & Warnings

There are currently no watches in effect.